Time;durP1;ratioP1;P1;durP2;ratioP2;P2;SDS_P1;SDS_P2;PMS_P1;PMS_P2;Temp;Humidity;BMP_temperature;BMP_pressure;BME280_temperature;BME280_humidity;BME280_pressure;Samples;Min_cycle;Max_cycle;Signal;HPM_P1;HPM_P2
2023/09/02 00:02:19;;;;;;;19.33;17.60;;;16.90;99.90;;;;;;5033805;28;20452;-73
2023/09/02 00:04:46;;;;;;;17.07;16.07;;;17.00;99.90;;;;;;5033749;28;20453;-74
2023/09/02 00:07:13;;;;;;;16.53;15.63;;;16.80;99.90;;;;;;5033539;28;20969;-74
2023/09/02 00:09:39;;;;;;;18.63;17.70;;;17.00;99.90;;;;;;5033721;28;20441;-73
2023/09/02 00:12:08;;;;;;;18.87;17.73;;;16.80;99.90;;;;;;5033576;28;20481;-74
2023/09/02 00:14:35;;;;;;;18.20;17.03;;;16.80;99.90;;;;;;5033777;28;20445;-73
2023/09/02 00:17:02;;;;;;;19.37;18.27;;;16.80;99.90;;;;;;5033606;28;20441;-73
2023/09/02 00:19:28;;;;;;;18.87;17.63;;;16.80;99.90;;;;;;5033414;28;20477;-73
2023/09/02 00:21:55;;;;;;;18.00;17.00;;;16.80;99.90;;;;;;5033256;28;20917;-73
2023/09/02 00:24:22;;;;;;;18.30;17.30;;;16.80;99.90;;;;;;5033353;28;20480;-73
2023/09/02 00:26:49;;;;;;;20.40;18.30;;;16.80;99.90;;;;;;5033375;28;20441;-73
2023/09/02 00:29:17;;;;;;;18.10;17.00;;;16.70;99.90;;;;;;5033415;28;20825;-73
2023/09/02 00:31:44;;;;;;;19.00;17.90;;;16.80;99.90;;;;;;5033166;28;20472;-73
2023/09/02 00:34:10;;;;;;;17.87;16.80;;;16.70;99.90;;;;;;5032833;28;20485;-73
2023/09/02 00:36:37;;;;;;;18.20;17.30;;;16.70;99.90;;;;;;5033291;28;20796;-72
2023/09/02 00:39:05;;;;;;;16.63;15.83;;;16.60;99.90;;;;;;5052609;28;20933;-72
2023/09/02 00:41:38;;;;;;;17.70;16.60;;;16.60;99.90;;;;;;5052913;28;20570;-74
2023/09/02 00:44:06;;;;;;;19.50;17.80;;;16.60;99.90;;;;;;5053233;28;20456;-72
2023/09/02 00:46:34;;;;;;;18.70;17.63;;;16.50;99.90;;;;;;5052945;28;20463;-72
2023/09/02 00:49:01;;;;;;;18.13;17.10;;;16.50;99.90;;;;;;5052734;28;20443;-74
2023/09/02 00:51:28;;;;;;;17.53;16.43;;;16.50;99.90;;;;;;5052825;28;20451;-73
2023/09/02 00:53:55;;;;;;;17.20;16.20;;;16.40;99.90;;;;;;5052732;28;20498;-72
2023/09/02 00:56:23;;;;;;;18.00;17.00;;;16.40;99.90;;;;;;5052785;28;20458;-73
2023/09/02 00:58:50;;;;;;;16.60;15.70;;;16.40;99.90;;;;;;5052846;28;20444;-74
2023/09/02 01:01:18;;;;;;;17.90;16.37;;;16.50;99.90;;;;;;5052405;28;20487;-72
2023/09/02 01:03:47;;;;;;;16.70;15.50;;;16.40;99.90;;;;;;5052513;28;20444;-73
2023/09/02 01:06:14;;;;;;;17.00;16.10;;;16.30;99.90;;;;;;5052440;28;20457;-72
2023/09/02 01:08:41;;;;;;;19.27;17.97;;;16.40;99.90;;;;;;5052477;28;20646;-72
2023/09/02 01:11:08;;;;;;;17.60;16.63;;;16.30;99.90;;;;;;5052450;28;20448;-72
2023/09/02 01:13:34;;;;;;;17.97;16.77;;;16.20;99.90;;;;;;5052632;28;20938;-73
2023/09/02 01:16:02;;;;;;;16.47;15.33;;;16.20;99.90;;;;;;5052394;28;20455;-71
2023/09/02 01:18:30;;;;;;;17.40;16.37;;;16.20;99.90;;;;;;5052039;28;20984;-71
2023/09/02 01:21:32;;;;;;;17.87;16.97;;;16.20;99.90;;;;;;5052175;28;20495;-73
2023/09/02 01:24:41;;;;;;;18.47;17.27;;;16.10;99.90;;;;;;5052073;28;20444;-73
2023/09/02 01:27:17;;;;;;;15.93;15.13;;;16.10;99.90;;;;;;5052034;28;20443;-72
2023/09/02 01:29:48;;;;;;;17.43;16.53;;;16.10;99.90;;;;;;5051964;28;20455;-72
2023/09/02 01:32:17;;;;;;;17.87;16.63;;;16.10;99.90;;;;;;5051913;28;20459;-72
2023/09/02 01:34:45;;;;;;;17.00;16.00;;;16.10;99.90;;;;;;5052033;28;20484;-71
2023/09/02 01:37:12;;;;;;;16.33;15.23;;;16.20;99.90;;;;;;5051927;28;20448;-72
2023/09/02 01:39:42;;;;;;;18.13;17.13;;;16.30;99.90;;;;;;5051600;28;20451;-71
2023/09/02 01:42:12;;;;;;;17.80;16.47;;;16.00;99.90;;;;;;5051827;28;20452;-71
2023/09/02 01:44:40;;;;;;;17.60;16.50;;;16.00;99.90;;;;;;5051657;28;20452;-72
2023/09/02 01:47:07;;;;;;;16.60;15.20;;;16.10;99.90;;;;;;5051606;28;20455;-72
2023/09/02 01:49:34;;;;;;;16.40;15.40;;;16.00;99.90;;;;;;5051905;28;20451;-72
2023/09/02 01:52:02;;;;;;;16.30;15.50;;;16.00;99.90;;;;;;5051663;28;20440;-72
2023/09/02 01:54:29;;;;;;;15.60;14.80;;;15.90;99.90;;;;;;5051570;28;20458;-72
2023/09/02 01:56:56;;;;;;;15.90;15.00;;;16.10;99.90;;;;;;5051815;28;20448;-72
2023/09/02 01:59:24;;;;;;;18.33;17.17;;;16.00;99.90;;;;;;5050804;28;20515;-72
2023/09/02 02:01:51;;;;;;;17.37;16.37;;;15.80;99.90;;;;;;5051439;28;20487;-72
2023/09/02 02:04:24;;;;;;;16.90;15.90;;;16.50;99.90;;;;;;5051646;28;20545;-73
2023/09/02 02:06:56;;;;;;;15.80;14.70;;;16.10;99.90;;;;;;5051476;28;20797;-72
2023/09/02 02:09:27;;;;;;;17.03;16.13;;;15.80;99.90;;;;;;5051278;28;20444;-73
2023/09/02 02:11:56;;;;;;;17.77;16.63;;;16.00;99.90;;;;;;5051242;28;20444;-74
2023/09/02 02:14:24;;;;;;;17.87;16.73;;;15.80;99.90;;;;;;5050997;28;20455;-73
2023/09/02 02:16:50;;;;;;;17.10;15.90;;;15.80;99.90;;;;;;5051262;28;20455;-73
2023/09/02 02:19:17;;;;;;;16.07;15.17;;;16.00;99.90;;;;;;5049716;28;20463;-72
2023/09/02 02:21:44;;;;;;;16.87;15.83;;;15.80;99.90;;;;;;5045374;28;20476;-72
2023/09/02 02:24:12;;;;;;;18.17;16.87;;;15.80;99.90;;;;;;5043839;28;20828;-71
2023/09/02 02:26:39;;;;;;;17.10;16.10;;;15.80;99.90;;;;;;5040703;28;20462;-74
2023/09/02 02:29:05;;;;;;;17.03;16.20;;;15.90;99.90;;;;;;5040613;28;20464;-75
2023/09/02 02:31:36;;;;;;;18.90;17.17;;;15.90;99.90;;;;;;5047317;28;20447;-72
2023/09/02 02:34:02;;;;;;;19.53;18.33;;;15.90;99.90;;;;;;5040039;28;20474;-72
2023/09/02 02:36:29;;;;;;;17.13;16.10;;;15.80;99.90;;;;;;5041177;28;20454;-74
2023/09/02 02:38:56;;;;;;;17.30;16.40;;;15.90;99.90;;;;;;5039245;28;21010;-73
2023/09/02 02:41:22;;;;;;;18.00;17.10;;;15.80;99.90;;;;;;5046814;28;20507;-72
2023/09/02 02:43:49;;;;;;;19.37;18.03;;;15.80;99.90;;;;;;5041975;28;20436;-72
2023/09/02 02:46:16;;;;;;;18.80;17.70;;;15.30;99.90;;;;;;5039406;28;20710;-72
2023/09/02 02:48:44;;;;;;;19.30;18.20;;;15.80;99.90;;;;;;5040005;28;20440;-73
2023/09/02 02:51:10;;;;;;;19.27;18.13;;;15.80;99.90;;;;;;5044949;28;20681;-74
2023/09/02 02:53:37;;;;;;;19.77;18.37;;;15.80;99.90;;;;;;5040376;28;20444;-72
2023/09/02 02:56:04;;;;;;;20.63;18.67;;;15.80;99.90;;;;;;5041041;28;20456;-72
2023/09/02 02:58:32;;;;;;;19.13;17.93;;;15.80;99.90;;;;;;5044420;28;20437;-76
2023/09/02 03:01:03;;;;;;;19.37;18.27;;;15.70;99.90;;;;;;5046831;28;20529;-74
2023/09/02 03:03:30;;;;;;;17.63;16.80;;;15.70;99.90;;;;;;5044044;28;20445;-74
2023/09/02 03:05:58;;;;;;;19.23;17.93;;;15.70;99.90;;;;;;5041512;28;20456;-72
2023/09/02 03:08:25;;;;;;;20.07;18.87;;;15.70;99.90;;;;;;5039166;28;20440;-73
2023/09/02 03:10:57;;;;;;;20.73;19.40;;;15.70;99.90;;;;;;5039769;28;20435;-74
2023/09/02 03:13:24;;;;;;;20.83;19.37;;;15.70;99.90;;;;;;5039938;28;20480;-74
2023/09/02 03:15:51;;;;;;;19.30;18.10;;;15.60;99.90;;;;;;5038696;28;20434;-73
2023/09/02 03:18:18;;;;;;;20.63;19.13;;;15.70;99.90;;;;;;5040399;28;20441;-74
2023/09/02 03:20:44;;;;;;;18.97;17.60;;;15.60;99.90;;;;;;5043516;28;20551;-74
2023/09/02 03:23:13;;;;;;;19.90;18.30;;;15.60;99.90;;;;;;5040655;28;20449;-74
2023/09/02 03:25:39;;;;;;;20.23;18.80;;;15.60;99.90;;;;;;5039708;28;20705;-74
2023/09/02 03:28:07;;;;;;;19.80;18.50;;;15.50;99.90;;;;;;5040171;28;20433;-73
2023/09/02 03:30:33;;;;;;;21.00;19.80;;;15.50;99.90;;;;;;5041449;28;20440;-74
2023/09/02 03:33:00;;;;;;;19.50;18.50;;;15.30;99.90;;;;;;5049765;28;20992;-73
2023/09/02 03:35:27;;;;;;;20.20;19.00;;;15.70;99.90;;;;;;5049746;28;20487;-74
2023/09/02 03:37:53;;;;;;;19.10;18.10;;;15.50;99.90;;;;;;5049896;28;20942;-73
2023/09/02 03:40:21;;;;;;;18.77;17.87;;;15.40;99.90;;;;;;5049944;28;20455;-73
2023/09/02 03:42:48;;;;;;;20.50;18.47;;;15.40;99.90;;;;;;5050089;28;20965;-73
2023/09/02 03:45:15;;;;;;;18.20;17.27;;;15.40;99.90;;;;;;5048694;28;20451;-74
2023/09/02 03:47:42;;;;;;;19.40;18.20;;;15.50;99.90;;;;;;5049176;28;20459;-73
2023/09/02 03:50:09;;;;;;;20.37;19.27;;;15.40;99.90;;;;;;5049108;28;20475;-73
2023/09/02 03:52:36;;;;;;;20.40;19.20;;;15.40;99.90;;;;;;5050071;28;20440;-74
2023/09/02 03:55:03;;;;;;;18.40;17.30;;;15.30;99.90;;;;;;5049922;28;20470;-73
2023/09/02 03:57:31;;;;;;;18.73;17.67;;;15.30;99.90;;;;;;5049791;28;20436;-72
2023/09/02 03:59:57;;;;;;;19.27;18.27;;;15.20;99.90;;;;;;5049441;28;21018;-73
2023/09/02 04:02:24;;;;;;;19.17;17.80;;;15.20;99.90;;;;;;5049587;28;20502;-73
2023/09/02 04:04:51;;;;;;;20.10;18.43;;;15.20;99.90;;;;;;5049694;28;20456;-72
2023/09/02 04:07:18;;;;;;;18.47;17.30;;;15.20;99.90;;;;;;5049797;28;20961;-72
2023/09/02 04:09:44;;;;;;;20.20;19.00;;;15.10;99.90;;;;;;5049498;28;20929;-72
2023/09/02 04:12:11;;;;;;;19.90;18.80;;;15.10;99.90;;;;;;5049544;28;20813;-73
2023/09/02 04:14:39;;;;;;;20.77;19.30;;;15.30;99.90;;;;;;5049466;28;20448;-72
2023/09/02 04:17:06;;;;;;;19.03;17.93;;;15.10;99.90;;;;;;5049837;28;20442;-72
2023/09/02 04:19:33;;;;;;;19.73;18.63;;;15.00;99.90;;;;;;5049766;28;20547;-73
2023/09/02 04:21:59;;;;;;;20.40;19.20;;;15.00;99.90;;;;;;5050348;28;20878;-72
2023/09/02 04:24:28;;;;;;;20.07;18.80;;;15.10;99.90;;;;;;5053210;28;20486;-72
2023/09/02 04:26:55;;;;;;;19.70;18.60;;;15.10;99.90;;;;;;5053250;28;20440;-74
2023/09/02 04:29:22;;;;;;;19.87;18.67;;;15.10;99.90;;;;;;5053040;28;20462;-73
2023/09/02 04:31:52;;;;;;;18.80;17.50;;;15.10;99.90;;;;;;5053239;28;20800;-72
2023/09/02 04:34:19;;;;;;;20.57;19.17;;;15.20;99.90;;;;;;5053110;28;20511;-73
2023/09/02 04:36:46;;;;;;;20.77;19.47;;;15.20;99.90;;;;;;5053041;28;20482;-75
2023/09/02 04:39:12;;;;;;;19.93;18.73;;;15.10;99.90;;;;;;5052990;28;20444;-72
2023/09/02 04:41:39;;;;;;;21.63;20.33;;;15.20;99.90;;;;;;5052762;28;20491;-72
2023/09/02 04:44:06;;;;;;;21.23;20.03;;;15.20;99.90;;;;;;5052830;28;20443;-74
2023/09/02 04:46:33;;;;;;;19.00;17.80;;;15.20;99.90;;;;;;5053090;28;20930;-74
2023/09/02 04:49:01;;;;;;;19.00;17.70;;;15.20;99.90;;;;;;5054282;28;20444;-71
2023/09/02 04:51:27;;;;;;;20.53;18.93;;;15.20;99.90;;;;;;5052899;28;20448;-73
2023/09/02 04:53:54;;;;;;;20.43;19.10;;;15.20;99.90;;;;;;5052743;28;20452;-73
2023/09/02 04:56:21;;;;;;;19.87;18.67;;;15.10;99.90;;;;;;5049425;28;20475;-73
2023/09/02 04:58:47;;;;;;;19.03;17.97;;;15.10;99.90;;;;;;5052687;28;20474;-73
2023/09/02 05:01:15;;;;;;;19.30;18.30;;;15.10;99.90;;;;;;5052332;28;20486;-73
2023/09/02 05:03:42;;;;;;;19.37;18.20;;;15.10;99.90;;;;;;5052491;28;20535;-73
2023/09/02 05:06:10;;;;;;;19.10;18.00;;;15.10;99.90;;;;;;5052566;28;20445;-73
2023/09/02 05:08:37;;;;;;;18.90;17.90;;;15.20;99.90;;;;;;5052353;28;20937;-73
2023/09/02 05:11:04;;;;;;;20.73;19.53;;;15.10;99.90;;;;;;5052482;28;20957;-73
2023/09/02 05:13:31;;;;;;;18.60;17.60;;;15.00;99.90;;;;;;5052346;28;20498;-74
2023/09/02 05:15:57;;;;;;;18.73;17.73;;;15.10;99.90;;;;;;5051542;28;20456;-75
2023/09/02 05:18:24;;;;;;;18.90;17.90;;;15.10;99.90;;;;;;5051197;28;20452;-73
2023/09/02 05:20:55;;;;;;;18.70;17.70;;;15.10;99.90;;;;;;5051462;28;20938;-72
2023/09/02 05:23:23;;;;;;;17.93;16.93;;;15.30;99.90;;;;;;5051573;28;20456;-72
2023/09/02 05:25:54;;;;;;;19.00;17.90;;;15.20;99.90;;;;;;5052081;28;20452;-72
2023/09/02 05:28:22;;;;;;;21.33;19.83;;;15.20;99.90;;;;;;5051628;28;20456;-73
2023/09/02 05:30:48;;;;;;;18.60;17.53;;;15.30;99.90;;;;;;5046234;28;20820;-73
2023/09/02 05:33:16;;;;;;;20.47;19.27;;;15.30;99.90;;;;;;5050240;28;20475;-74
2023/09/02 05:35:43;;;;;;;18.77;17.70;;;15.40;99.90;;;;;;5051856;28;20522;-73
2023/09/02 05:38:09;;;;;;;18.27;16.83;;;15.40;99.90;;;;;;5051175;28;20452;-75
2023/09/02 05:40:40;;;;;;;17.77;16.77;;;15.60;99.90;;;;;;5051192;28;20509;-73
2023/09/02 05:43:07;;;;;;;17.87;16.90;;;15.80;99.90;;;;;;5051077;28;20658;-74
2023/09/02 05:45:33;;;;;;;16.00;15.07;;;16.00;99.90;;;;;;5051604;28;20474;-73
2023/09/02 05:48:00;;;;;;;15.60;14.80;;;16.10;99.90;;;;;;5051628;28;20451;-74
2023/09/02 05:50:27;;;;;;;16.73;15.83;;;16.40;99.90;;;;;;5050017;28;20498;-74
2023/09/02 05:52:54;;;;;;;17.10;15.93;;;16.60;99.90;;;;;;5050927;28;20459;-74
2023/09/02 05:55:20;;;;;;;16.20;15.30;;;16.60;99.90;;;;;;5051553;28;20448;-74
2023/09/02 05:57:48;;;;;;;15.23;14.30;;;16.80;99.90;;;;;;5051431;28;20457;-75
2023/09/02 06:00:15;;;;;;;14.40;13.70;;;17.10;99.90;;;;;;5050868;28;20448;-74
2023/09/02 06:02:42;;;;;;;13.57;12.87;;;17.20;99.90;;;;;;5050943;28;20491;-73
2023/09/02 06:05:09;;;;;;;14.97;14.07;;;17.30;99.90;;;;;;5051004;28;20526;-75
2023/09/02 06:07:36;;;;;;;13.87;13.03;;;17.60;99.90;;;;;;5050730;28;20471;-73
2023/09/02 06:10:02;;;;;;;14.30;13.70;;;17.80;99.90;;;;;;5050780;28;20452;-75
2023/09/02 06:12:30;;;;;;;15.17;14.47;;;18.10;99.90;;;;;;5050621;28;20487;-72
2023/09/02 06:14:58;;;;;;;15.67;14.93;;;18.30;99.90;;;;;;5050972;28;20804;-75
2023/09/02 06:17:28;;;;;;;13.50;12.70;;;18.30;99.90;;;;;;5050515;28;21175;-75
2023/09/02 06:19:55;;;;;;;13.50;12.73;;;18.60;99.90;;;;;;5050350;28;20456;-74
2023/09/02 06:22:22;;;;;;;13.80;13.03;;;18.90;99.90;;;;;;5050589;28;20525;-77
2023/09/02 06:24:48;;;;;;;13.63;13.03;;;19.00;99.90;;;;;;5051318;28;20452;-75
2023/09/02 06:27:15;;;;;;;14.47;13.77;;;19.10;99.90;;;;;;5050460;28;20799;-75
2023/09/02 06:29:44;;;;;;;13.40;12.53;;;19.30;99.90;;;;;;5050519;28;20453;-76
2023/09/02 06:32:13;;;;;;;13.47;12.77;;;19.70;99.90;;;;;;5050148;28;21047;-74
2023/09/02 06:34:39;;;;;;;13.33;12.63;;;19.80;99.90;;;;;;5045194;28;20494;-76
2023/09/02 06:37:06;;;;;;;11.77;11.27;;;19.90;99.90;;;;;;5050239;28;20902;-74
2023/09/02 06:39:33;;;;;;;12.80;11.90;;;20.20;99.90;;;;;;5050329;28;20832;-75
2023/09/02 06:41:59;;;;;;;13.80;13.10;;;20.40;99.90;;;;;;5049776;28;20977;-75
2023/09/02 06:44:26;;;;;;;13.10;12.50;;;20.60;99.90;;;;;;5050257;28;20482;-75
2023/09/02 06:46:53;;;;;;;13.00;12.40;;;20.70;99.90;;;;;;5050571;28;20444;-74
2023/09/02 06:49:21;;;;;;;12.37;11.87;;;21.00;99.90;;;;;;5050933;28;20485;-75
2023/09/02 06:51:47;;;;;;;12.37;11.77;;;21.10;99.90;;;;;;5050944;28;20800;-76
2023/09/02 06:54:14;;;;;;;11.90;11.30;;;21.10;99.90;;;;;;5050856;28;20825;-75
2023/09/02 06:56:41;;;;;;;13.30;12.30;;;21.60;99.90;;;;;;5050456;28;20780;-76
2023/09/02 06:59:07;;;;;;;11.93;11.43;;;21.70;99.90;;;;;;5048611;28;20460;-75
2023/09/02 07:01:34;;;;;;;11.93;11.33;;;22.00;99.90;;;;;;5049859;28;20480;-76
2023/09/02 07:04:01;;;;;;;12.20;11.20;;;22.30;99.90;;;;;;5050229;28;20460;-77
2023/09/02 07:06:29;;;;;;;13.47;12.17;;;22.40;99.90;;;;;;5050023;28;20448;-75
2023/09/02 07:08:55;;;;;;;10.97;10.50;;;22.60;99.90;;;;;;5049503;28;20547;-76
2023/09/02 07:11:22;;;;;;;11.47;10.77;;;22.60;99.90;;;;;;5049579;28;20455;-76
2023/09/02 07:13:49;;;;;;;12.70;12.10;;;22.80;99.90;;;;;;5050521;28;20622;-74
2023/09/02 07:16:15;;;;;;;12.50;11.80;;;22.70;99.90;;;;;;5048076;28;20489;-76
2023/09/02 07:18:42;;;;;;;11.77;11.17;;;22.90;99.90;;;;;;5049468;28;20966;-75
2023/09/02 07:21:09;;;;;;;11.57;10.87;;;22.60;99.90;;;;;;5049527;28;20456;-74
2023/09/02 07:23:37;;;;;;;10.93;10.23;;;22.50;99.90;;;;;;5049923;28;20518;-75
2023/09/02 07:26:05;;;;;;;11.10;10.57;;;22.50;99.90;;;;;;5050321;28;20451;-75
2023/09/02 07:28:33;;;;;;;11.40;10.90;;;22.70;99.90;;;;;;5049537;28;20448;-75
2023/09/02 07:31:01;;;;;;;11.70;10.97;;;22.70;99.90;;;;;;5049338;28;20444;-75
2023/09/02 07:33:28;;;;;;;11.40;10.90;;;23.30;99.90;;;;;;5049537;28;20492;-75
2023/09/02 07:35:56;;;;;;;11.10;10.70;;;24.10;99.90;;;;;;5049346;28;20459;-73
2023/09/02 07:38:23;;;;;;;11.23;10.53;;;24.20;99.90;;;;;;5050039;28;20447;-74
2023/09/02 07:40:51;;;;;;;12.63;12.13;;;24.10;99.90;;;;;;5050025;28;20490;-75
2023/09/02 07:43:18;;;;;;;11.40;10.80;;;23.90;99.90;;;;;;5046416;28;20849;-75
2023/09/02 07:45:44;;;;;;;11.00;10.50;;;24.20;99.90;;;;;;5043017;28;20445;-75
2023/09/02 07:48:11;;;;;;;11.00;10.20;;;24.20;99.90;;;;;;5043402;28;20453;-74
2023/09/02 07:50:38;;;;;;;12.40;11.60;;;24.50;99.90;;;;;;5043298;28;20456;-76
2023/09/02 07:53:04;;;;;;;13.07;12.47;;;25.00;99.90;;;;;;5047405;28;20444;-75
2023/09/02 07:55:31;;;;;;;11.13;10.40;;;25.60;99.90;;;;;;5044558;28;20459;-76
2023/09/02 07:58:01;;;;;;;11.70;11.10;;;26.10;99.90;;;;;;5046154;28;21683;-76
2023/09/02 08:00:28;;;;;;;12.13;11.63;;;26.70;99.90;;;;;;5050050;28;20456;-76
2023/09/02 08:02:55;;;;;;;11.73;11.10;;;26.50;99.90;;;;;;5052878;28;20495;-76
2023/09/02 08:05:22;;;;;;;12.30;11.60;;;26.50;99.90;;;;;;5052971;28;20448;-76
2023/09/02 08:07:49;;;;;;;12.97;12.17;;;26.30;99.90;;;;;;5053202;28;20456;-75
2023/09/02 08:10:16;;;;;;;12.50;11.80;;;26.10;99.90;;;;;;5052734;28;20471;-74
2023/09/02 08:12:42;;;;;;;13.50;12.90;;;26.50;99.90;;;;;;5053103;28;20452;-75
2023/09/02 08:15:11;;;;;;;12.67;12.17;;;26.30;99.90;;;;;;5053043;28;20447;-76
2023/09/02 08:17:38;;;;;;;12.30;11.70;;;26.40;99.90;;;;;;5053018;28;20470;-75
2023/09/02 08:20:06;;;;;;;12.03;11.53;;;26.60;99.90;;;;;;5053277;28;20471;-77
2023/09/02 08:22:33;;;;;;;13.40;12.80;;;26.70;99.90;;;;;;5053902;28;20475;-80
2023/09/02 08:25:00;;;;;;;13.03;12.43;;;26.80;99.90;;;;;;5053602;28;20452;-77
2023/09/02 08:27:27;;;;;;;12.50;11.80;;;26.50;99.90;;;;;;5052847;28;21040;-76
2023/09/02 08:29:53;;;;;;;11.97;11.43;;;26.20;99.90;;;;;;5052093;28;20487;-77
2023/09/02 08:32:21;;;;;;;13.20;12.30;;;26.30;99.90;;;;;;5052168;28;20475;-76
2023/09/02 08:34:48;;;;;;;12.77;12.27;;;26.70;99.90;;;;;;5044606;28;20469;-76
2023/09/02 08:37:15;;;;;;;12.77;12.17;;;26.80;99.90;;;;;;5047138;28;20459;-76
2023/09/02 08:39:42;;;;;;;12.73;12.03;;;27.10;99.90;;;;;;5046449;28;20992;-77
2023/09/02 08:42:09;;;;;;;11.90;11.50;;;27.40;99.90;;;;;;5047053;28;20578;-76
2023/09/02 08:44:36;;;;;;;12.40;11.80;;;27.40;99.90;;;;;;5042518;28;20687;-76
2023/09/02 08:47:04;;;;;;;13.60;12.90;;;28.20;99.90;;;;;;5041071;28;20440;-76
2023/09/02 08:49:33;;;;;;;13.63;12.83;;;27.50;99.90;;;;;;5041243;28;20463;-76
2023/09/02 08:52:01;;;;;;;11.50;11.00;;;27.40;99.90;;;;;;5041557;28;20451;-76
2023/09/02 08:54:29;;;;;;;11.40;10.83;;;27.60;99.90;;;;;;5043082;28;20440;-76
2023/09/02 08:56:57;;;;;;;11.90;11.40;;;27.90;99.40;;;;;;5042055;28;20970;-76
2023/09/02 08:59:24;;;;;;;11.37;10.77;;;28.40;98.40;;;;;;5040522;28;20444;-77
2023/09/02 09:01:52;;;;;;;12.93;12.33;;;28.30;98.50;;;;;;5043048;28;20432;-76
2023/09/02 09:04:19;;;;;;;13.53;13.03;;;28.80;98.30;;;;;;5042827;28;20430;-76
2023/09/02 09:06:48;;;;;;;13.13;12.63;;;29.20;97.50;;;;;;5040903;28;20520;-76
2023/09/02 09:09:16;;;;;;;13.60;12.90;;;29.60;96.20;;;;;;5040799;28;20440;-76
2023/09/02 09:11:43;;;;;;;13.07;12.43;;;29.90;95.30;;;;;;5043099;28;20433;-77
2023/09/02 09:14:18;;;;;;;13.67;13.07;;;29.70;95.50;;;;;;5041822;28;20441;-76
2023/09/02 09:16:45;;;;;;;12.77;12.17;;;29.50;95.60;;;;;;5041539;28;20917;-78
2023/09/02 09:19:12;;;;;;;13.33;12.80;;;29.40;96.00;;;;;;5042640;28;20439;-77
2023/09/02 09:21:39;;;;;;;11.30;10.90;;;29.50;95.50;;;;;;5043484;28;20809;-76
2023/09/02 09:24:11;;;;;;;12.53;11.80;;;29.90;95.40;;;;;;5043126;28;20480;-76
2023/09/02 09:26:39;;;;;;;13.33;12.60;;;30.10;94.80;;;;;;5043111;28;20849;-76
2023/09/02 09:29:11;;;;;;;13.33;12.80;;;30.40;94.50;;;;;;5042852;28;20538;-76
2023/09/02 09:31:38;;;;;;;11.87;11.37;;;30.80;93.60;;;;;;5048644;28;20786;-75
2023/09/02 09:34:06;;;;;;;12.73;12.20;;;31.10;93.30;;;;;;5040923;28;20457;-76
2023/09/02 09:36:33;;;;;;;14.10;13.20;;;30.70;93.40;;;;;;5042532;28;20436;-77
2023/09/02 09:39:02;;;;;;;13.57;12.97;;;30.10;94.20;;;;;;5042175;28;20437;-75
2023/09/02 09:41:30;;;;;;;14.13;13.23;;;30.50;94.30;;;;;;5040925;28;20441;-75
2023/09/02 09:44:04;;;;;;;12.63;12.13;;;30.60;93.60;;;;;;5046261;28;20870;-76
2023/09/02 09:46:31;;;;;;;13.37;12.77;;;31.40;92.40;;;;;;5035735;28;20466;-76
2023/09/02 09:49:01;;;;;;;12.63;12.13;;;31.50;92.30;;;;;;5040527;28;20440;-75
2023/09/02 09:51:28;;;;;;;14.17;13.57;;;31.70;91.70;;;;;;5042218;28;20443;-75
2023/09/02 09:53:55;;;;;;;12.07;11.57;;;31.40;92.10;;;;;;5042447;28;20456;-81
2023/09/02 09:56:22;;;;;;;13.00;12.50;;;31.80;91.20;;;;;;5041415;28;20444;-82
2023/09/02 09:58:50;;;;;;;14.30;13.70;;;32.60;89.90;;;;;;5046096;28;20958;-81
2023/09/02 10:01:24;;;;;;;13.27;12.77;;;33.00;88.80;;;;;;5044945;28;20507;-79
2023/09/02 10:03:54;;;;;;;15.03;14.23;;;33.00;87.10;;;;;;5047184;28;20480;-82
2023/09/02 10:06:21;;;;;;;13.80;13.30;;;33.50;85.30;;;;;;5046558;28;20496;-82
2023/09/02 10:08:53;;;;;;;13.10;12.60;;;32.80;86.10;;;;;;5047852;28;20444;-80
2023/09/02 10:11:21;;;;;;;14.90;14.20;;;33.00;86.00;;;;;;5051818;28;20455;-81
2023/09/02 10:13:50;;;;;;;13.10;12.37;;;32.70;85.00;;;;;;5051909;28;20861;-80
2023/09/02 10:16:18;;;;;;;13.80;13.30;;;32.20;85.50;;;;;;5050668;28;20452;-81
2023/09/02 10:18:47;;;;;;;13.70;13.10;;;32.80;82.20;;;;;;5052806;28;20467;-81
2023/09/02 10:21:15;;;;;;;14.00;13.40;;;33.40;83.10;;;;;;5053870;28;20444;-82
